Boone, CO (81025)

6:44 AM MDT on September 04, 2015 (GMT -0600)
21 Miles NE of Airport | | Change Station
CLOSE
Current Station
Personal Weather Station
Location: Pueblo, CO
Elevation: 5000 ft
Nearby Weather Stations

Elev 5000 ft 38.45 °N, 104.34 °W | Updated 16 seconds ago

Clear
Clear
52.2 °F
Feels Like 52.2 °F
N
6.0
Wind Variable Wind from North
Gusts 7.0 mph

Today
High -- | Low -- °F
--% Chance of Precip.
Yesterday
High -- | Low -- °F
Precip. -- in
6:28 AM 7:22 PM
Waning Gibbous, 60% visible
Pressure 29.83 in
Visibility 10.0 miles
Clouds Clear
Dew Point 49 °F
Humidity 90%
Rainfall 0.00 in
Snow Depth Not available.
UV 0 out of 12
Pollen 10.30 out of 12
Air Quality Not available.
Flu Activity Not available.
METAR KPUB 041153Z AUTO 27004KT 10SM CLR 13/10 A2997 RMK AO2 SLP100 T01330100 10194 20133 52003
Pressure 29.83 in
Visibility 10.0 miles
Clouds Clear
Dew Point 49 °F
Humidity 90%
Rainfall 0.00 in
Snow Depth Not available.
UV 0 out of 12
Pollen 10.30 out of 12
Air Quality Not available.
Flu Activity Not available.
METAR KPUB 041153Z AUTO 27004KT 10SM CLR 13/10 A2997 RMK AO2 SLP100 T01330100 10194 20133 52003

10-Day Weather Forecast

×

Almanac

Astronomy

Sep. 04, 2015 Rise Set
Actual Time
Civil Twilight
Nautical Twilight
Astronomical Twilight
Moon
Length of Visible Light
Length of Day
Tomorrow will be .
, % of the Moon is Illuminated

Today's Extremes

State Highs State Lows

Community

WunderPhotos

Upload Photos

1,852,174 photos uploaded!

WunderBlogs® & News

Nearby

Air Quality

  Air Quality AQ Index Pollutant
Not available.

Snow Depth

Station Depth Elevation

Earthquake Activity

City Distance Mag. Time & Date
Minimum magnitude displayed is 2.5.

Coastal Water Temperatures

Place Temperature

Stations

Nearby Weather Stations

Station Location Temp. Windchill Dew Point Humidity Wind Precip. Elev Updated Type